sensor_id;sensor_type;location;lat;lon;timestamp;P1;durP1;ratioP1;P2;durP2;ratioP2
45206;SDS011;30950;53.086;21.576;2023-05-16T00:01:28;11.35;;;9.68;;
45206;SDS011;30950;53.086;21.576;2023-05-16T00:03:56;10.63;;;9.32;;
45206;SDS011;30950;53.086;21.576;2023-05-16T00:06:24;13.45;;;9.55;;
45206;SDS011;30950;53.086;21.576;2023-05-16T00:08:51;10.73;;;8.90;;
45206;SDS011;30950;53.086;21.576;2023-05-16T00:11:18;12.90;;;9.23;;
45206;SDS011;30950;53.086;21.576;2023-05-16T00:13:45;10.32;;;8.90;;
45206;SDS011;30950;53.086;21.576;2023-05-16T00:16:13;12.65;;;9.18;;
45206;SDS011;30950;53.086;21.576;2023-05-16T00:18:40;10.38;;;8.75;;
45206;SDS011;30950;53.086;21.576;2023-05-16T00:21:11;11.52;;;8.57;;
45206;SDS011;30950;53.086;21.576;2023-05-16T00:23:39;11.48;;;9.20;;
45206;SDS011;30950;53.086;21.576;2023-05-16T00:26:06;9.75;;;8.73;;
45206;SDS011;30950;53.086;21.576;2023-05-16T00:28:33;9.68;;;8.73;;
45206;SDS011;30950;53.086;21.576;2023-05-16T00:31:00;11.65;;;8.18;;
45206;SDS011;30950;53.086;21.576;2023-05-16T00:33:27;9.77;;;8.77;;
45206;SDS011;30950;53.086;21.576;2023-05-16T00:35:57;11.00;;;8.82;;
45206;SDS011;30950;53.086;21.576;2023-05-16T00:38:24;9.07;;;8.18;;
45206;SDS011;30950;53.086;21.576;2023-05-16T00:40:52;10.65;;;8.50;;
45206;SDS011;30950;53.086;21.576;2023-05-16T00:43:19;9.48;;;8.57;;
45206;SDS011;30950;53.086;21.576;2023-05-16T00:45:49;10.20;;;8.45;;
45206;SDS011;30950;53.086;21.576;2023-05-16T00:48:16;11.43;;;9.07;;
45206;SDS011;30950;53.086;21.576;2023-05-16T00:50:44;10.02;;;8.35;;
45206;SDS011;30950;53.086;21.576;2023-05-16T00:53:12;11.27;;;8.40;;
45206;SDS011;30950;53.086;21.576;2023-05-16T00:55:40;9.88;;;8.45;;
45206;SDS011;30950;53.086;21.576;2023-05-16T00:58:08;9.23;;;8.23;;
45206;SDS011;30950;53.086;21.576;2023-05-16T01:00:37;10.57;;;8.77;;
45206;SDS011;30950;53.086;21.576;2023-05-16T01:03:04;9.60;;;8.55;;
45206;SDS011;30950;53.086;21.576;2023-05-16T01:05:32;11.55;;;9.07;;
45206;SDS011;30950;53.086;21.576;2023-05-16T01:07:59;9.57;;;8.68;;
45206;SDS011;30950;53.086;21.576;2023-05-16T01:10:37;10.60;;;9.40;;
45206;SDS011;30950;53.086;21.576;2023-05-16T01:15:53;10.30;;;9.25;;
45206;SDS011;30950;53.086;21.576;2023-05-16T01:20:58;10.85;;;8.70;;
45206;SDS011;30950;53.086;21.576;2023-05-16T01:26:17;10.05;;;9.02;;
45206;SDS011;30950;53.086;21.576;2023-05-16T01:28:48;9.88;;;8.52;;
45206;SDS011;30950;53.086;21.576;2023-05-16T01:31:17;11.43;;;8.93;;
45206;SDS011;30950;53.086;21.576;2023-05-16T01:33:45;10.05;;;9.05;;
45206;SDS011;30950;53.086;21.576;2023-05-16T01:44:30;9.80;;;8.50;;
45206;SDS011;30950;53.086;21.576;2023-05-16T01:46:59;10.75;;;8.93;;
45206;SDS011;30950;53.086;21.576;2023-05-16T01:49:34;12.68;;;9.98;;
45206;SDS011;30950;53.086;21.576;2023-05-16T01:52:07;10.27;;;9.27;;
45206;SDS011;30950;53.086;21.576;2023-05-16T01:54:41;12.70;;;9.88;;
45206;SDS011;30950;53.086;21.576;2023-05-16T01:57:11;13.80;;;9.80;;
45206;SDS011;30950;53.086;21.576;2023-05-16T01:59:39;10.48;;;9.02;;
45206;SDS011;30950;53.086;21.576;2023-05-16T02:02:09;10.80;;;9.00;;
45206;SDS011;30950;53.086;21.576;2023-05-16T02:04:37;11.00;;;9.35;;
45206;SDS011;30950;53.086;21.576;2023-05-16T02:07:04;10.52;;;9.23;;
45206;SDS011;30950;53.086;21.576;2023-05-16T02:09:31;10.80;;;9.27;;
45206;SDS011;30950;53.086;21.576;2023-05-16T02:11:59;9.68;;;8.68;;
45206;SDS011;30950;53.086;21.576;2023-05-16T02:14:27;9.98;;;8.93;;
45206;SDS011;30950;53.086;21.576;2023-05-16T02:16:55;9.88;;;8.88;;
45206;SDS011;30950;53.086;21.576;2023-05-16T02:19:23;11.93;;;9.35;;
45206;SDS011;30950;53.086;21.576;2023-05-16T02:21:50;10.52;;;8.95;;
45206;SDS011;30950;53.086;21.576;2023-05-16T02:24:17;9.75;;;8.60;;
45206;SDS011;30950;53.086;21.576;2023-05-16T02:26:44;9.85;;;8.85;;
45206;SDS011;30950;53.086;21.576;2023-05-16T02:29:11;11.13;;;9.52;;
45206;SDS011;30950;53.086;21.576;2023-05-16T02:31:39;10.25;;;9.15;;
45206;SDS011;30950;53.086;21.576;2023-05-16T02:34:08;10.55;;;9.13;;
45206;SDS011;30950;53.086;21.576;2023-05-16T02:36:36;10.88;;;9.40;;
45206;SDS011;30950;53.086;21.576;2023-05-16T02:39:03;14.07;;;9.45;;
45206;SDS011;30950;53.086;21.576;2023-05-16T02:41:31;11.45;;;10.25;;
45206;SDS011;30950;53.086;21.576;2023-05-16T02:43:58;11.93;;;9.43;;
45206;SDS011;30950;53.086;21.576;2023-05-16T02:46:29;10.57;;;9.45;;
45206;SDS011;30950;53.086;21.576;2023-05-16T02:48:59;10.65;;;9.55;;
45206;SDS011;30950;53.086;21.576;2023-05-16T02:51:27;10.82;;;9.73;;
45206;SDS011;30950;53.086;21.576;2023-05-16T02:53:54;15.18;;;10.63;;
45206;SDS011;30950;53.086;21.576;2023-05-16T02:56:28;11.20;;;10.10;;
45206;SDS011;30950;53.086;21.576;2023-05-16T02:58:55;10.75;;;9.50;;
45206;SDS011;30950;53.086;21.576;2023-05-16T03:01:23;10.52;;;9.43;;
45206;SDS011;30950;53.086;21.576;2023-05-16T03:03:50;11.23;;;9.88;;
45206;SDS011;30950;53.086;21.576;2023-05-16T03:06:18;13.90;;;10.48;;
45206;SDS011;30950;53.086;21.576;2023-05-16T03:08:45;11.25;;;10.13;;
45206;SDS011;30950;53.086;21.576;2023-05-16T03:11:13;12.23;;;10.07;;
45206;SDS011;30950;53.086;21.576;2023-05-16T03:13:41;12.82;;;11.10;;
45206;SDS011;30950;53.086;21.576;2023-05-16T03:16:09;10.73;;;9.63;;
45206;SDS011;30950;53.086;21.576;2023-05-16T03:18:36;11.93;;;10.55;;
45206;SDS011;30950;53.086;21.576;2023-05-16T03:21:04;11.48;;;10.27;;
45206;SDS011;30950;53.086;21.576;2023-05-16T03:23:31;12.73;;;11.00;;
45206;SDS011;30950;53.086;21.576;2023-05-16T03:25:58;11.63;;;9.73;;
45206;SDS011;30950;53.086;21.576;2023-05-16T03:28:26;12.65;;;11.25;;
45206;SDS011;30950;53.086;21.576;2023-05-16T03:30:54;13.88;;;10.85;;
45206;SDS011;30950;53.086;21.576;2023-05-16T03:33:21;12.35;;;11.05;;
45206;SDS011;30950;53.086;21.576;2023-05-16T03:35:50;12.70;;;10.65;;
45206;SDS011;30950;53.086;21.576;2023-05-16T03:38:17;13.95;;;11.57;;
45206;SDS011;30950;53.086;21.576;2023-05-16T03:40:45;10.98;;;9.95;;
45206;SDS011;30950;53.086;21.576;2023-05-16T03:43:12;11.82;;;10.57;;
45206;SDS011;30950;53.086;21.576;2023-05-16T03:45:39;15.35;;;10.90;;
45206;SDS011;30950;53.086;21.576;2023-05-16T03:48:07;13.38;;;11.98;;
45206;SDS011;30950;53.086;21.576;2023-05-16T03:50:35;11.73;;;10.52;;
45206;SDS011;30950;53.086;21.576;2023-05-16T03:53:06;10.70;;;9.60;;
45206;SDS011;30950;53.086;21.576;2023-05-16T03:55:34;12.63;;;10.80;;
45206;SDS011;30950;53.086;21.576;2023-05-16T03:58:02;12.35;;;10.30;;
45206;SDS011;30950;53.086;21.576;2023-05-16T04:00:29;11.18;;;10.05;;
45206;SDS011;30950;53.086;21.576;2023-05-16T04:02:56;11.30;;;10.18;;
45206;SDS011;30950;53.086;21.576;2023-05-16T04:05:24;11.98;;;10.73;;
45206;SDS011;30950;53.086;21.576;2023-05-16T04:07:51;12.88;;;11.43;;
45206;SDS011;30950;53.086;21.576;2023-05-16T04:10:19;11.88;;;10.35;;
45206;SDS011;30950;53.086;21.576;2023-05-16T04:12:47;12.10;;;10.07;;
45206;SDS011;30950;53.086;21.576;2023-05-16T04:15:15;11.02;;;9.82;;
45206;SDS011;30950;53.086;21.576;2023-05-16T04:17:42;11.70;;;10.45;;
45206;SDS011;30950;53.086;21.576;2023-05-16T04:20:10;10.48;;;9.35;;
45206;SDS011;30950;53.086;21.576;2023-05-16T04:22:37;10.95;;;9.57;;
45206;SDS011;30950;53.086;21.576;2023-05-16T04:25:05;11.23;;;10.13;;
45206;SDS011;30950;53.086;21.576;2023-05-16T04:27:32;10.55;;;9.50;;
45206;SDS011;30950;53.086;21.576;2023-05-16T04:29:59;10.48;;;9.38;;
45206;SDS011;30950;53.086;21.576;2023-05-16T04:32:27;12.13;;;9.73;;
45206;SDS011;30950;53.086;21.576;2023-05-16T04:34:54;11.18;;;10.07;;
45206;SDS011;30950;53.086;21.576;2023-05-16T04:37:22;10.60;;;9.57;;
45206;SDS011;30950;53.086;21.576;2023-05-16T04:39:49;12.95;;;10.32;;
45206;SDS011;30950;53.086;21.576;2023-05-16T04:42:17;10.52;;;9.45;;
45206;SDS011;30950;53.086;21.576;2023-05-16T04:44:44;17.60;;;11.07;;
45206;SDS011;30950;53.086;21.576;2023-05-16T04:47:13;10.05;;;9.05;;
45206;SDS011;30950;53.086;21.576;2023-05-16T04:49:40;10.35;;;9.35;;
45206;SDS011;30950;53.086;21.576;2023-05-16T04:52:07;13.07;;;11.88;;
45206;SDS011;30950;53.086;21.576;2023-05-16T04:54:37;12.00;;;9.93;;
45206;SDS011;30950;53.086;21.576;2023-05-16T04:57:04;11.55;;;9.57;;
45206;SDS011;30950;53.086;21.576;2023-05-16T04:59:32;10.30;;;9.23;;
45206;SDS011;30950;53.086;21.576;2023-05-16T05:01:59;9.98;;;8.98;;
45206;SDS011;30950;53.086;21.576;2023-05-16T05:04:26;10.52;;;8.85;;
45206;SDS011;30950;53.086;21.576;2023-05-16T05:06:54;9.45;;;8.55;;
45206;SDS011;30950;53.086;21.576;2023-05-16T05:09:21;9.80;;;8.80;;
45206;SDS011;30950;53.086;21.576;2023-05-16T05:11:48;9.90;;;8.90;;
45206;SDS011;30950;53.086;21.576;2023-05-16T05:14:17;9.65;;;8.65;;
45206;SDS011;30950;53.086;21.576;2023-05-16T05:16:44;10.45;;;9.35;;
45206;SDS011;30950;53.086;21.576;2023-05-16T05:19:11;9.77;;;8.77;;
45206;SDS011;30950;53.086;21.576;2023-05-16T05:21:38;10.45;;;9.30;;
45206;SDS011;30950;53.086;21.576;2023-05-16T05:24:06;9.63;;;8.18;;
45206;SDS011;30950;53.086;21.576;2023-05-16T05:26:33;9.50;;;8.60;;
45206;SDS011;30950;53.086;21.576;2023-05-16T05:29:00;9.80;;;8.88;;
45206;SDS011;30950;53.086;21.576;2023-05-16T05:31:31;9.95;;;8.95;;
45206;SDS011;30950;53.086;21.576;2023-05-16T05:34:02;10.13;;;9.13;;
45206;SDS011;30950;53.086;21.576;2023-05-16T05:36:29;9.13;;;8.23;;
45206;SDS011;30950;53.086;21.576;2023-05-16T05:38:57;10.27;;;8.75;;
45206;SDS011;30950;53.086;21.576;2023-05-16T05:41:24;8.38;;;7.57;;
45206;SDS011;30950;53.086;21.576;2023-05-16T05:43:52;11.77;;;10.55;;
45206;SDS011;30950;53.086;21.576;2023-05-16T05:46:19;9.70;;;8.70;;
45206;SDS011;30950;53.086;21.576;2023-05-16T05:48:47;10.60;;;9.60;;
45206;SDS011;30950;53.086;21.576;2023-05-16T05:51:15;11.32;;;9.25;;
45206;SDS011;30950;53.086;21.576;2023-05-16T05:53:43;11.52;;;10.32;;
45206;SDS011;30950;53.086;21.576;2023-05-16T05:56:10;10.07;;;9.00;;
45206;SDS011;30950;53.086;21.576;2023-05-16T05:58:38;11.43;;;10.13;;
45206;SDS011;30950;53.086;21.576;2023-05-16T06:01:07;11.27;;;9.60;;
45206;SDS011;30950;53.086;21.576;2023-05-16T06:03:36;11.30;;;9.95;;
45206;SDS011;30950;53.086;21.576;2023-05-16T06:06:03;11.73;;;10.55;;
45206;SDS011;30950;53.086;21.576;2023-05-16T06:08:30;11.60;;;10.40;;
45206;SDS011;30950;53.086;21.576;2023-05-16T06:10:58;10.95;;;9.85;;
45206;SDS011;30950;53.086;21.576;2023-05-16T06:13:26;11.98;;;10.73;;
45206;SDS011;30950;53.086;21.576;2023-05-16T06:15:53;12.75;;;11.55;;
45206;SDS011;30950;53.086;21.576;2023-05-16T06:18:20;15.75;;;14.05;;
45206;SDS011;30950;53.086;21.576;2023-05-16T06:20:48;13.80;;;12.40;;
45206;SDS011;30950;53.086;21.576;2023-05-16T06:23:16;12.32;;;11.13;;
45206;SDS011;30950;53.086;21.576;2023-05-16T06:25:46;13.57;;;12.18;;
45206;SDS011;30950;53.086;21.576;2023-05-16T06:28:14;13.00;;;11.38;;
45206;SDS011;30950;53.086;21.576;2023-05-16T06:30:41;13.23;;;11.88;;
45206;SDS011;30950;53.086;21.576;2023-05-16T06:33:08;15.68;;;13.50;;
45206;SDS011;30950;53.086;21.576;2023-05-16T06:35:36;13.43;;;11.57;;
45206;SDS011;30950;53.086;21.576;2023-05-16T06:38:03;15.80;;;12.63;;
45206;SDS011;30950;53.086;21.576;2023-05-16T06:40:30;12.23;;;10.43;;
45206;SDS011;30950;53.086;21.576;2023-05-16T06:42:58;19.13;;;14.18;;
45206;SDS011;30950;53.086;21.576;2023-05-16T06:45:25;14.02;;;12.52;;
45206;SDS011;30950;53.086;21.576;2023-05-16T06:47:54;13.52;;;11.88;;
45206;SDS011;30950;53.086;21.576;2023-05-16T06:50:23;13.02;;;11.70;;
45206;SDS011;30950;53.086;21.576;2023-05-16T06:52:50;12.77;;;11.07;;
45206;SDS011;30950;53.086;21.576;2023-05-16T06:55:17;15.07;;;13.48;;
45206;SDS011;30950;53.086;21.576;2023-05-16T06:57:45;16.30;;;13.48;;
45206;SDS011;30950;53.086;21.576;2023-05-16T07:00:12;13.57;;;12.18;;
45206;SDS011;30950;53.086;21.576;2023-05-16T07:02:40;19.75;;;14.85;;
45206;SDS011;30950;53.086;21.576;2023-05-16T07:05:07;13.80;;;11.38;;
45206;SDS011;30950;53.086;21.576;2023-05-16T07:07:35;21.98;;;15.02;;
45206;SDS011;30950;53.086;21.576;2023-05-16T07:10:03;12.15;;;10.50;;
45206;SDS011;30950;53.086;21.576;2023-05-16T07:12:30;15.70;;;13.65;;
45206;SDS011;30950;53.086;21.576;2023-05-16T07:14:58;13.00;;;10.55;;
45206;SDS011;30950;53.086;21.576;2023-05-16T07:17:25;12.20;;;10.55;;
45206;SDS011;30950;53.086;21.576;2023-05-16T07:19:52;11.98;;;10.68;;
45206;SDS011;30950;53.086;21.576;2023-05-16T07:22:20;13.43;;;11.70;;
45206;SDS011;30950;53.086;21.576;2023-05-16T07:24:47;18.92;;;11.65;;
45206;SDS011;30950;53.086;21.576;2023-05-16T07:27:14;11.48;;;10.38;;
45206;SDS011;30950;53.086;21.576;2023-05-16T07:29:42;14.32;;;12.82;;
45206;SDS011;30950;53.086;21.576;2023-05-16T07:32:10;13.43;;;11.20;;
45206;SDS011;30950;53.086;21.576;2023-05-16T07:34:37;12.82;;;11.07;;
45206;SDS011;30950;53.086;21.576;2023-05-16T07:37:05;10.30;;;9.15;;
45206;SDS011;30950;53.086;21.576;2023-05-16T07:39:38;10.85;;;9.73;;
45206;SDS011;30950;53.086;21.576;2023-05-16T07:42:06;12.88;;;11.43;;
45206;SDS011;30950;53.086;21.576;2023-05-16T07:44:34;15.48;;;11.30;;
45206;SDS011;30950;53.086;21.576;2023-05-16T07:47:02;14.57;;;13.00;;
45206;SDS011;30950;53.086;21.576;2023-05-16T07:49:29;14.27;;;11.85;;
45206;SDS011;30950;53.086;21.576;2023-05-16T07:51:57;11.98;;;10.80;;
45206;SDS011;30950;53.086;21.576;2023-05-16T07:54:24;11.60;;;10.40;;
45206;SDS011;30950;53.086;21.576;2023-05-16T07:56:51;12.82;;;10.57;;
45206;SDS011;30950;53.086;21.576;2023-05-16T07:59:18;11.18;;;10.07;;
45206;SDS011;30950;53.086;21.576;2023-05-16T08:01:46;10.45;;;9.45;;
45206;SDS011;30950;53.086;21.576;2023-05-16T08:04:13;9.50;;;8.60;;
45206;SDS011;30950;53.086;21.576;2023-05-16T08:06:41;12.27;;;9.43;;
45206;SDS011;30950;53.086;21.576;2023-05-16T08:09:08;11.20;;;8.95;;
45206;SDS011;30950;53.086;21.576;2023-05-16T08:11:35;9.05;;;8.15;;
45206;SDS011;30950;53.086;21.576;2023-05-16T08:14:02;12.10;;;7.60;;
45206;SDS011;30950;53.086;21.576;2023-05-16T08:16:30;8.85;;;7.07;;
45206;SDS011;30950;53.086;21.576;2023-05-16T08:18:57;11.30;;;7.43;;
45206;SDS011;30950;53.086;21.576;2023-05-16T08:21:25;8.05;;;6.97;;
45206;SDS011;30950;53.086;21.576;2023-05-16T08:23:52;8.25;;;6.25;;
45206;SDS011;30950;53.086;21.576;2023-05-16T08:26:20;7.80;;;6.95;;
45206;SDS011;30950;53.086;21.576;2023-05-16T08:28:47;7.63;;;6.10;;
45206;SDS011;30950;53.086;21.576;2023-05-16T08:31:15;7.15;;;6.20;;
45206;SDS011;30950;53.086;21.576;2023-05-16T08:33:42;7.22;;;6.32;;
45206;SDS011;30950;53.086;21.576;2023-05-16T08:36:12;7.22;;;6.18;;
45206;SDS011;30950;53.086;21.576;2023-05-16T08:38:41;7.32;;;6.40;;
45206;SDS011;30950;53.086;21.576;2023-05-16T08:41:09;7.63;;;6.05;;
45206;SDS011;30950;53.086;21.576;2023-05-16T08:43:36;7.18;;;6.00;;
45206;SDS011;30950;53.086;21.576;2023-05-16T08:46:05;7.22;;;6.53;;
45206;SDS011;30950;53.086;21.576;2023-05-16T08:48:33;6.50;;;5.32;;
45206;SDS011;30950;53.086;21.576;2023-05-16T08:51:02;8.00;;;5.82;;
45206;SDS011;30950;53.086;21.576;2023-05-16T08:53:37;7.35;;;5.28;;
45206;SDS011;30950;53.086;21.576;2023-05-16T08:56:12;5.50;;;4.90;;
45206;SDS011;30950;53.086;21.576;2023-05-16T08:58:42;5.13;;;4.20;;
45206;SDS011;30950;53.086;21.576;2023-05-16T09:01:10;5.40;;;4.10;;
45206;SDS011;30950;53.086;21.576;2023-05-16T09:03:38;4.50;;;3.70;;
45206;SDS011;30950;53.086;21.576;2023-05-16T09:06:06;6.82;;;3.97;;
45206;SDS011;30950;53.086;21.576;2023-05-16T09:08:34;151.60;;;15.88;;
45206;SDS011;30950;53.086;21.576;2023-05-16T09:11:01;6.43;;;3.40;;
45206;SDS011;30950;53.086;21.576;2023-05-16T09:13:29;4.10;;;3.40;;
45206;SDS011;30950;53.086;21.576;2023-05-16T09:16:10;7.93;;;3.47;;
45206;SDS011;30950;53.086;21.576;2023-05-16T09:18:39;4.00;;;3.00;;
45206;SDS011;30950;53.086;21.576;2023-05-16T09:21:09;6.65;;;3.15;;
45206;SDS011;30950;53.086;21.576;2023-05-16T09:23:37;4.53;;;2.97;;
45206;SDS011;30950;53.086;21.576;2023-05-16T09:26:04;4.20;;;3.22;;
45206;SDS011;30950;53.086;21.576;2023-05-16T09:28:36;25.38;;;5.13;;
45206;SDS011;30950;53.086;21.576;2023-05-16T09:31:07;5.80;;;3.10;;
45206;SDS011;30950;53.086;21.576;2023-05-16T09:33:46;6.95;;;3.00;;
45206;SDS011;30950;53.086;21.576;2023-05-16T09:36:17;4.03;;;3.17;;
45206;SDS011;30950;53.086;21.576;2023-05-16T09:38:44;4.75;;;3.47;;
45206;SDS011;30950;53.086;21.576;2023-05-16T09:41:12;28.48;;;4.60;;
45206;SDS011;30950;53.086;21.576;2023-05-16T09:43:40;9.40;;;5.28;;
45206;SDS011;30950;53.086;21.576;2023-05-16T09:46:15;4.20;;;3.45;;
45206;SDS011;30950;53.086;21.576;2023-05-16T09:48:46;5.22;;;3.58;;
45206;SDS011;30950;53.086;21.576;2023-05-16T09:51:13;40.85;;;5.10;;
45206;SDS011;30950;53.086;21.576;2023-05-16T09:53:41;6.30;;;3.70;;
45206;SDS011;30950;53.086;21.576;2023-05-16T09:56:10;3.92;;;3.15;;
45206;SDS011;30950;53.086;21.576;2023-05-16T09:58:39;4.68;;;3.20;;
45206;SDS011;30950;53.086;21.576;2023-05-16T10:01:08;4.75;;;3.55;;
45206;SDS011;30950;53.086;21.576;2023-05-16T10:03:37;5.60;;;3.15;;
45206;SDS011;30950;53.086;21.576;2023-05-16T10:06:06;4.60;;;3.17;;
45206;SDS011;30950;53.086;21.576;2023-05-16T10:08:35;4.07;;;3.30;;
45206;SDS011;30950;53.086;21.576;2023-05-16T10:11:03;6.40;;;3.80;;
45206;SDS011;30950;53.086;21.576;2023-05-16T10:13:34;4.47;;;3.40;;
45206;SDS011;30950;53.086;21.576;2023-05-16T10:16:05;4.03;;;3.17;;
45206;SDS011;30950;53.086;21.576;2023-05-16T10:18:35;4.53;;;3.15;;
45206;SDS011;30950;53.086;21.576;2023-05-16T10:21:04;4.57;;;3.20;;
45206;SDS011;30950;53.086;21.576;2023-05-16T10:23:40;5.75;;;3.42;;
45206;SDS011;30950;53.086;21.576;2023-05-16T10:26:09;3.83;;;2.97;;
45206;SDS011;30950;53.086;21.576;2023-05-16T10:28:40;5.32;;;3.50;;
45206;SDS011;30950;53.086;21.576;2023-05-16T10:31:09;4.18;;;3.03;;
45206;SDS011;30950;53.086;21.576;2023-05-16T10:33:38;3.97;;;3.08;;
45206;SDS011;30950;53.086;21.576;2023-05-16T10:36:06;4.93;;;2.97;;
45206;SDS011;30950;53.086;21.576;2023-05-16T10:38:35;4.80;;;2.60;;
45206;SDS011;30950;53.086;21.576;2023-05-16T10:41:04;4.22;;;3.15;;
45206;SDS011;30950;53.086;21.576;2023-05-16T10:43:32;6.65;;;3.58;;
45206;SDS011;30950;53.086;21.576;2023-05-16T10:46:03;4.32;;;3.28;;
45206;SDS011;30950;53.086;21.576;2023-05-16T10:51:02;5.53;;;3.53;;
45206;SDS011;30950;53.086;21.576;2023-05-16T10:53:50;7.82;;;3.38;;
45206;SDS011;30950;53.086;21.576;2023-05-16T10:56:22;4.30;;;3.38;;
45206;SDS011;30950;53.086;21.576;2023-05-16T10:58:52;3.78;;;3.28;;
45206;SDS011;30950;53.086;21.576;2023-05-16T11:01:24;5.28;;;3.50;;
45206;SDS011;30950;53.086;21.576;2023-05-16T11:06:25;6.20;;;3.70;;
45206;SDS011;30950;53.086;21.576;2023-05-16T11:09:36;8.15;;;4.30;;
45206;SDS011;30950;53.086;21.576;2023-05-16T11:17:05;4.75;;;3.13;;
45206;SDS011;30950;53.086;21.576;2023-05-16T11:19:56;5.72;;;3.15;;
45206;SDS011;30950;53.086;21.576;2023-05-16T11:22:32;4.13;;;3.20;;
45206;SDS011;30950;53.086;21.576;2023-05-16T11:25:07;4.13;;;3.15;;
45206;SDS011;30950;53.086;21.576;2023-05-16T11:27:41;3.63;;;2.85;;
45206;SDS011;30950;53.086;21.576;2023-05-16T11:30:11;6.47;;;3.20;;
45206;SDS011;30950;53.086;21.576;2023-05-16T11:32:41;3.25;;;2.60;;
45206;SDS011;30950;53.086;21.576;2023-05-16T11:35:13;5.32;;;2.92;;
45206;SDS011;30950;53.086;21.576;2023-05-16T11:37:41;4.72;;;2.88;;
45206;SDS011;30950;53.086;21.576;2023-05-16T11:40:10;3.40;;;2.65;;
45206;SDS011;30950;53.086;21.576;2023-05-16T11:42:40;4.60;;;2.60;;
45206;SDS011;30950;53.086;21.576;2023-05-16T11:47:38;3.85;;;2.90;;
45206;SDS011;30950;53.086;21.576;2023-05-16T11:50:09;3.80;;;2.72;;
45206;SDS011;30950;53.086;21.576;2023-05-16T11:52:40;4.25;;;2.80;;
45206;SDS011;30950;53.086;21.576;2023-05-16T11:55:10;3.72;;;2.55;;
45206;SDS011;30950;53.086;21.576;2023-05-16T11:57:42;3.58;;;2.80;;
45206;SDS011;30950;53.086;21.576;2023-05-16T12:00:13;5.68;;;3.40;;
45206;SDS011;30950;53.086;21.576;2023-05-16T12:02:43;5.43;;;2.78;;
45206;SDS011;30950;53.086;21.576;2023-05-16T12:05:14;4.63;;;2.40;;
45206;SDS011;30950;53.086;21.576;2023-05-16T12:07:42;3.65;;;2.53;;
45206;SDS011;30950;53.086;21.576;2023-05-16T12:10:12;6.28;;;4.57;;
45206;SDS011;30950;53.086;21.576;2023-05-16T12:12:41;4.25;;;3.03;;
45206;SDS011;30950;53.086;21.576;2023-05-16T12:15:11;4.75;;;2.83;;
45206;SDS011;30950;53.086;21.576;2023-05-16T12:17:40;7.78;;;3.35;;
45206;SDS011;30950;53.086;21.576;2023-05-16T12:20:08;3.38;;;2.53;;
45206;SDS011;30950;53.086;21.576;2023-05-16T12:22:42;4.03;;;3.28;;
45206;SDS011;30950;53.086;21.576;2023-05-16T12:27:56;3.40;;;2.65;;
45206;SDS011;30950;53.086;21.576;2023-05-16T12:30:26;5.15;;;2.92;;
45206;SDS011;30950;53.086;21.576;2023-05-16T12:32:58;4.10;;;2.92;;
45206;SDS011;30950;53.086;21.576;2023-05-16T12:35:31;5.30;;;2.60;;
45206;SDS011;30950;53.086;21.576;2023-05-16T12:38:08;4.80;;;2.50;;
45206;SDS011;30950;53.086;21.576;2023-05-16T12:40:38;2.78;;;2.10;;
45206;SDS011;30950;53.086;21.576;2023-05-16T12:43:19;4.75;;;1.95;;
45206;SDS011;30950;53.086;21.576;2023-05-16T12:48:18;2.75;;;2.10;;
45206;SDS011;30950;53.086;21.576;2023-05-16T12:50:46;2.72;;;1.90;;
45206;SDS011;30950;53.086;21.576;2023-05-16T12:53:15;4.60;;;2.50;;
45206;SDS011;30950;53.086;21.576;2023-05-16T12:55:43;3.55;;;2.13;;
45206;SDS011;30950;53.086;21.576;2023-05-16T12:58:11;3.70;;;2.25;;
45206;SDS011;30950;53.086;21.576;2023-05-16T13:00:38;3.40;;;2.50;;
45206;SDS011;30950;53.086;21.576;2023-05-16T13:03:06;4.57;;;2.10;;
45206;SDS011;30950;53.086;21.576;2023-05-16T13:05:33;4.05;;;2.20;;
45206;SDS011;30950;53.086;21.576;2023-05-16T13:08:02;3.95;;;2.20;;
45206;SDS011;30950;53.086;21.576;2023-05-16T13:10:29;3.97;;;2.50;;
45206;SDS011;30950;53.086;21.576;2023-05-16T13:12:57;3.60;;;2.47;;
45206;SDS011;30950;53.086;21.576;2023-05-16T13:15:25;3.20;;;2.53;;
45206;SDS011;30950;53.086;21.576;2023-05-16T13:17:54;3.00;;;2.30;;
45206;SDS011;30950;53.086;21.576;2023-05-16T13:20:21;3.33;;;2.38;;
45206;SDS011;30950;53.086;21.576;2023-05-16T13:22:49;4.60;;;2.15;;
45206;SDS011;30950;53.086;21.576;2023-05-16T13:25:16;4.45;;;2.50;;
45206;SDS011;30950;53.086;21.576;2023-05-16T13:27:44;3.20;;;2.30;;
45206;SDS011;30950;53.086;21.576;2023-05-16T13:30:11;3.58;;;2.20;;
45206;SDS011;30950;53.086;21.576;2023-05-16T13:32:40;3.08;;;2.45;;
45206;SDS011;30950;53.086;21.576;2023-05-16T13:35:08;5.97;;;2.50;;
45206;SDS011;30950;53.086;21.576;2023-05-16T13:37:36;3.10;;;2.40;;
45206;SDS011;30950;53.086;21.576;2023-05-16T13:40:03;2.55;;;2.03;;
45206;SDS011;30950;53.086;21.576;2023-05-16T13:42:31;4.53;;;2.53;;
45206;SDS011;30950;53.086;21.576;2023-05-16T13:44:58;3.08;;;2.28;;
45206;SDS011;30950;53.086;21.576;2023-05-16T13:47:25;3.92;;;2.72;;
45206;SDS011;30950;53.086;21.576;2023-05-16T13:49:53;4.05;;;2.70;;
45206;SDS011;30950;53.086;21.576;2023-05-16T13:52:20;5.25;;;2.58;;
45206;SDS011;30950;53.086;21.576;2023-05-16T13:54:47;3.35;;;2.60;;
45206;SDS011;30950;53.086;21.576;2023-05-16T13:57:15;3.55;;;2.40;;
45206;SDS011;30950;53.086;21.576;2023-05-16T13:59:42;3.13;;;2.17;;
45206;SDS011;30950;53.086;21.576;2023-05-16T14:02:12;4.65;;;2.83;;
45206;SDS011;30950;53.086;21.576;2023-05-16T14:04:40;3.22;;;2.40;;
45206;SDS011;30950;53.086;21.576;2023-05-16T14:07:07;2.92;;;2.40;;
45206;SDS011;30950;53.086;21.576;2023-05-16T14:09:35;2.80;;;2.20;;
45206;SDS011;30950;53.086;21.576;2023-05-16T14:12:05;3.15;;;2.17;;
45206;SDS011;30950;53.086;21.576;2023-05-16T14:14:33;6.10;;;4.75;;
45206;SDS011;30950;53.086;21.576;2023-05-16T14:17:01;3.97;;;2.22;;
45206;SDS011;30950;53.086;21.576;2023-05-16T14:19:29;3.45;;;2.85;;
45206;SDS011;30950;53.086;21.576;2023-05-16T14:21:57;3.13;;;2.38;;
45206;SDS011;30950;53.086;21.576;2023-05-16T14:24:24;4.05;;;2.60;;
45206;SDS011;30950;53.086;21.576;2023-05-16T14:26:52;4.18;;;2.60;;
45206;SDS011;30950;53.086;21.576;2023-05-16T14:29:23;4.35;;;2.40;;
45206;SDS011;30950;53.086;21.576;2023-05-16T14:31:51;4.03;;;2.40;;
45206;SDS011;30950;53.086;21.576;2023-05-16T14:34:19;3.20;;;2.45;;
45206;SDS011;30950;53.086;21.576;2023-05-16T14:36:49;2.83;;;2.22;;
45206;SDS011;30950;53.086;21.576;2023-05-16T14:39:16;3.17;;;2.40;;
45206;SDS011;30950;53.086;21.576;2023-05-16T14:41:44;2.65;;;2.20;;
45206;SDS011;30950;53.086;21.576;2023-05-16T14:44:11;3.65;;;2.35;;
45206;SDS011;30950;53.086;21.576;2023-05-16T14:46:38;5.18;;;2.50;;
45206;SDS011;30950;53.086;21.576;2023-05-16T14:49:06;4.05;;;2.55;;
45206;SDS011;30950;53.086;21.576;2023-05-16T14:51:34;5.93;;;2.70;;
45206;SDS011;30950;53.086;21.576;2023-05-16T14:54:02;4.40;;;3.20;;
45206;SDS011;30950;53.086;21.576;2023-05-16T14:56:30;3.30;;;2.60;;
45206;SDS011;30950;53.086;21.576;2023-05-16T14:58:57;3.80;;;2.60;;
45206;SDS011;30950;53.086;21.576;2023-05-16T15:01:26;3.38;;;2.60;;
45206;SDS011;30950;53.086;21.576;2023-05-16T15:03:53;3.40;;;2.50;;
45206;SDS011;30950;53.086;21.576;2023-05-16T15:06:22;4.32;;;2.78;;
45206;SDS011;30950;53.086;21.576;2023-05-16T15:08:50;3.10;;;2.40;;